Time;durP1;ratioP1;P1;durP2;ratioP2;P2;SDS_P1;SDS_P2;PMS_P1;PMS_P2;Temp;Humidity;BMP_temperature;BMP_pressure;BME280_temperature;BME280_humidity;BME280_pressure;Samples;Min_cycle;Max_cycle;Signal;HPM_P1;HPM_P2
2021/06/08 00:00:55;;;;;;;8.75;5.35;;;;;;;;;;4933365;29;20031;-68
2021/06/08 00:03:21;;;;;;;12.18;5.18;;;;;;;;;;4932453;29;20098;-64
2021/06/08 00:05:47;;;;;;;12.90;5.65;;;;;;;;;;4932785;29;20027;-68
2021/06/08 00:08:13;;;;;;;9.98;5.97;;;;;;;;;;4933446;29;20032;-65
2021/06/08 00:10:40;;;;;;;9.93;5.82;;;;;;;;;;4933423;29;20806;-71
2021/06/08 00:13:06;;;;;;;12.43;5.97;;;;;;;;;;4933100;29;20039;-72
2021/06/08 00:15:32;;;;;;;8.55;5.70;;;;;;;;;;4933485;29;20092;-67
2021/06/08 00:17:58;;;;;;;9.98;6.25;;;;;;;;;;4933263;29;20485;-62
2021/06/08 00:20:24;;;;;;;9.13;5.50;;;;;;;;;;4933283;29;20031;-61
2021/06/08 00:22:50;;;;;;;10.25;5.78;;;;;;;;;;4933281;29;20122;-72
2021/06/08 00:25:16;;;;;;;11.68;6.07;;;;;;;;;;4937080;29;20027;-71
2021/06/08 00:27:42;;;;;;;15.93;6.25;;;;;;;;;;4936870;29;20024;-61
2021/06/08 00:30:09;;;;;;;9.70;5.18;;;;;;;;;;4936633;29;20023;-72
2021/06/08 00:32:35;;;;;;;8.70;5.53;;;;;;;;;;4936581;29;20097;-67
2021/06/08 00:35:01;;;;;;;12.10;5.82;;;;;;;;;;4936630;29;20031;-70
2021/06/08 00:37:27;;;;;;;10.13;5.72;;;;;;;;;;4936723;29;20480;-70
2021/06/08 00:39:54;;;;;;;10.20;5.60;;;;;;;;;;4936703;29;20027;-64
2021/06/08 00:42:27;;;;;;;12.90;5.85;;;;;;;;;;4936327;29;20102;-62
2021/06/08 00:44:53;;;;;;;11.02;5.75;;;;;;;;;;4936510;29;20503;-68
2021/06/08 00:47:19;;;;;;;9.30;6.10;;;;;;;;;;4936607;29;20027;-61
2021/06/08 00:49:45;;;;;;;11.63;5.97;;;;;;;;;;4936361;29;20026;-73
2021/06/08 00:52:11;;;;;;;12.32;5.93;;;;;;;;;;4936306;29;20035;-67
2021/06/08 00:54:37;;;;;;;13.63;6.78;;;;;;;;;;4936317;29;20024;-72
2021/06/08 00:57:03;;;;;;;10.82;5.80;;;;;;;;;;4936451;29;20472;-61
2021/06/08 00:59:29;;;;;;;12.27;6.13;;;;;;;;;;4936193;29;20043;-62
2021/06/08 01:01:55;;;;;;;8.75;6.03;;;;;;;;;;4936516;29;20023;-61
2021/06/08 01:04:21;;;;;;;12.13;6.22;;;;;;;;;;4935914;29;20484;-60
2021/06/08 01:06:48;;;;;;;13.05;5.70;;;;;;;;;;4936210;29;20023;-69
2021/06/08 01:09:14;;;;;;;10.55;5.88;;;;;;;;;;4936069;29;20035;-65
2021/06/08 01:11:41;;;;;;;10.48;5.68;;;;;;;;;;4935954;29;20087;-63
2021/06/08 01:14:07;;;;;;;10.95;5.60;;;;;;;;;;4936069;29;20040;-72
2021/06/08 01:16:33;;;;;;;9.57;6.00;;;;;;;;;;4936015;29;20034;-62
2021/06/08 01:18:59;;;;;;;11.98;7.05;;;;;;;;;;4935891;29;20044;-74
2021/06/08 01:21:27;;;;;;;10.55;5.55;;;;;;;;;;4935829;29;20091;-69
2021/06/08 01:23:53;;;;;;;11.73;6.10;;;;;;;;;;4935707;29;20028;-72
2021/06/08 01:26:22;;;;;;;12.32;5.80;;;;;;;;;;4935826;29;20027;-66
2021/06/08 01:28:49;;;;;;;12.90;6.00;;;;;;;;;;4935572;29;20396;-72
2021/06/08 01:31:18;;;;;;;10.95;6.68;;;;;;;;;;4935806;29;20114;-63
2021/06/08 01:33:45;;;;;;;11.77;6.20;;;;;;;;;;4935230;29;20059;-62
2021/06/08 01:36:24;;;;;;;12.40;6.80;;;;;;;;;;4934879;29;20042;-73
2021/06/08 01:38:51;;;;;;;12.35;5.90;;;;;;;;;;4935502;29;20047;-70
2021/06/08 01:41:19;;;;;;;13.48;6.20;;;;;;;;;;4935290;29;20052;-64
2021/06/08 01:43:45;;;;;;;9.40;6.35;;;;;;;;;;4935500;29;20420;-68
2021/06/08 01:46:12;;;;;;;12.52;5.75;;;;;;;;;;4935581;29;20027;-62
2021/06/08 01:48:39;;;;;;;11.32;5.82;;;;;;;;;;4935025;29;20114;-71
2021/06/08 01:51:11;;;;;;;13.75;6.32;;;;;;;;;;4935762;29;20489;-73
2021/06/08 01:53:39;;;;;;;11.20;6.30;;;;;;;;;;4935341;29;20031;-73
2021/06/08 01:56:13;;;;;;;10.15;5.93;;;;;;;;;;4935649;29;20468;-72
2021/06/08 01:58:54;;;;;;;11.10;6.22;;;;;;;;;;4917681;29;20055;-70
2021/06/08 02:01:25;;;;;;;11.80;5.85;;;;;;;;;;4936129;29;20122;-71
2021/06/08 02:04:06;;;;;;;9.65;6.20;;;;;;;;;;4936745;29;20028;-62
2021/06/08 02:06:32;;;;;;;10.38;6.20;;;;;;;;;;4935548;29;20028;-61
2021/06/08 02:08:58;;;;;;;12.77;6.60;;;;;;;;;;4935157;29;20035;-62
2021/06/08 02:11:27;;;;;;;10.10;6.13;;;;;;;;;;4934933;29;20028;-63
2021/06/08 02:14:05;;;;;;;10.57;6.80;;;;;;;;;;4934854;29;20054;-71
2021/06/08 02:16:39;;;;;;;12.27;6.60;;;;;;;;;;4934937;29;20028;-63
2021/06/08 02:19:06;;;;;;;11.45;6.28;;;;;;;;;;4934587;29;20122;-65
2021/06/08 02:21:37;;;;;;;12.73;6.80;;;;;;;;;;4934786;29;20110;-74
2021/06/08 02:24:04;;;;;;;12.05;6.30;;;;;;;;;;4934551;29;20027;-71
2021/06/08 02:26:31;;;;;;;8.40;6.50;;;;;;;;;;4934804;29;20495;-73
2021/06/08 02:28:59;;;;;;;10.40;6.43;;;;;;;;;;4934364;29;20035;-72
2021/06/08 02:31:26;;;;;;;9.82;6.18;;;;;;;;;;4934700;29;20115;-72
2021/06/08 02:33:53;;;;;;;10.48;6.47;;;;;;;;;;4934375;29;20028;-63
2021/06/08 02:36:19;;;;;;;13.07;6.47;;;;;;;;;;4934535;29;20122;-64
2021/06/08 02:38:46;;;;;;;11.60;6.55;;;;;;;;;;4934332;29;20040;-62
2021/06/08 02:41:12;;;;;;;11.63;6.38;;;;;;;;;;4934156;29;20500;-61
2021/06/08 02:43:39;;;;;;;10.93;6.90;;;;;;;;;;4934214;29;20114;-63
2021/06/08 02:46:06;;;;;;;15.45;6.70;;;;;;;;;;4934450;29;20023;-69
2021/06/08 02:48:33;;;;;;;11.25;6.65;;;;;;;;;;4934380;29;20124;-61
2021/06/08 02:50:59;;;;;;;10.80;5.95;;;;;;;;;;4934191;29;20063;-70
2021/06/08 02:53:26;;;;;;;12.80;6.65;;;;;;;;;;4934328;29;20034;-61
2021/06/08 02:55:53;;;;;;;10.80;6.38;;;;;;;;;;4934627;29;20031;-63
2021/06/08 02:58:20;;;;;;;11.32;6.97;;;;;;;;;;4934217;29;20083;-61
2021/06/08 03:00:46;;;;;;;12.02;6.90;;;;;;;;;;4934313;29;20079;-60
2021/06/08 03:03:15;;;;;;;12.07;6.97;;;;;;;;;;4934138;29;20074;-71
2021/06/08 03:05:43;;;;;;;11.70;6.97;;;;;;;;;;4933982;29;20028;-73
2021/06/08 03:08:22;;;;;;;14.80;6.45;;;;;;;;;;4934208;29;20028;-60
2021/06/08 03:10:50;;;;;;;13.73;6.78;;;;;;;;;;4934031;29;20020;-67
2021/06/08 03:13:17;;;;;;;10.32;7.25;;;;;;;;;;4933934;29;20035;-68
2021/06/08 03:15:45;;;;;;;11.63;6.80;;;;;;;;;;4934108;29;20023;-71
2021/06/08 03:18:12;;;;;;;13.15;6.88;;;;;;;;;;4933926;29;20035;-68
2021/06/08 03:20:41;;;;;;;12.23;6.85;;;;;;;;;;4933773;29;20042;-60
2021/06/08 03:23:09;;;;;;;13.80;6.95;;;;;;;;;;4933900;29;20487;-60
2021/06/08 03:25:36;;;;;;;11.80;6.30;;;;;;;;;;4933878;29;20051;-61
2021/06/08 03:28:03;;;;;;;10.82;6.60;;;;;;;;;;4933363;29;20424;-60
2021/06/08 03:30:29;;;;;;;10.60;6.68;;;;;;;;;;4933420;29;20055;-61
2021/06/08 03:32:56;;;;;;;11.30;6.45;;;;;;;;;;4933892;29;20023;-61
2021/06/08 03:35:22;;;;;;;14.00;6.80;;;;;;;;;;4933979;29;20038;-60
2021/06/08 03:37:49;;;;;;;12.75;6.80;;;;;;;;;;4933669;29;20046;-61
2021/06/08 03:40:16;;;;;;;11.60;6.07;;;;;;;;;;4933686;29;20027;-66
2021/06/08 03:42:42;;;;;;;13.35;6.80;;;;;;;;;;4933813;29;20066;-63
2021/06/08 03:45:13;;;;;;;11.00;6.60;;;;;;;;;;4933818;29;20020;-60
2021/06/08 03:47:39;;;;;;;13.23;6.53;;;;;;;;;;4933719;29;20364;-60
2021/06/08 03:50:06;;;;;;;10.02;7.05;;;;;;;;;;4933703;29;20503;-61
2021/06/08 03:52:32;;;;;;;13.80;7.13;;;;;;;;;;4933757;29;20032;-65
2021/06/08 03:54:58;;;;;;;10.02;6.78;;;;;;;;;;4933532;29;20056;-66
2021/06/08 03:57:28;;;;;;;11.15;6.68;;;;;;;;;;4933714;29;20039;-65
2021/06/08 03:59:56;;;;;;;11.43;6.50;;;;;;;;;;4937003;29;20019;-63
2021/06/08 04:02:22;;;;;;;12.27;6.95;;;;;;;;;;4937412;29;20032;-64
2021/06/08 04:04:49;;;;;;;9.65;6.72;;;;;;;;;;4936903;29;20483;-66
2021/06/08 04:07:17;;;;;;;12.90;7.60;;;;;;;;;;4936916;29;20034;-63
2021/06/08 04:09:46;;;;;;;13.02;7.53;;;;;;;;;;4937385;29;20027;-63
2021/06/08 04:12:12;;;;;;;12.23;7.28;;;;;;;;;;4936850;29;20035;-62
2021/06/08 04:14:38;;;;;;;16.50;7.32;;;;;;;;;;4936902;29;20063;-62
2021/06/08 04:17:04;;;;;;;11.80;6.72;;;;;;;;;;4936871;29;20028;-61
2021/06/08 04:19:31;;;;;;;11.38;6.45;;;;;;;;;;4936597;29;20032;-65
2021/06/08 04:21:57;;;;;;;10.10;8.10;;;;;;;;;;4936677;29;20030;-61
2021/06/08 04:24:23;;;;;;;12.88;6.78;;;;;;;;;;4919441;29;20028;-62
2021/06/08 04:26:49;;;;;;;11.38;6.70;;;;;;;;;;4931028;29;20049;-62
2021/06/08 04:29:15;;;;;;;13.70;7.20;;;;;;;;;;4930446;29;20531;-65
2021/06/08 04:31:41;;;;;;;8.95;7.45;;;;;;;;;;4936238;29;20102;-66
2021/06/08 04:34:08;;;;;;;13.45;7.85;;;;;;;;;;4918825;29;20043;-71
2021/06/08 04:36:34;;;;;;;12.30;8.30;;;;;;;;;;4936639;29;20024;-65
2021/06/08 04:39:00;;;;;;;10.98;8.63;;;;;;;;;;4936360;29;20074;-70
2021/06/08 04:41:27;;;;;;;11.20;8.02;;;;;;;;;;4936084;29;20075;-61
2021/06/08 04:43:53;;;;;;;11.02;9.20;;;;;;;;;;4936382;29;20036;-62
2021/06/08 04:46:19;;;;;;;11.98;8.45;;;;;;;;;;4936558;29;20063;-67
2021/06/08 04:48:45;;;;;;;12.23;7.75;;;;;;;;;;4936365;29;20036;-64
2021/06/08 04:51:12;;;;;;;15.85;13.18;;;;;;;;;;4936786;29;20031;-61
2021/06/08 04:53:38;;;;;;;11.60;7.97;;;;;;;;;;4936467;29;20559;-61
2021/06/08 04:56:06;;;;;;;11.82;9.25;;;;;;;;;;4935820;29;20030;-63
2021/06/08 04:58:32;;;;;;;15.35;8.95;;;;;;;;;;4936034;29;20043;-62
2021/06/08 05:01:04;;;;;;;12.80;7.75;;;;;;;;;;4935965;29;20361;-65
2021/06/08 05:03:38;;;;;;;10.90;8.35;;;;;;;;;;4936254;29;20460;-62
2021/06/08 05:06:06;;;;;;;15.73;8.65;;;;;;;;;;4935977;29;20098;-63
2021/06/08 05:08:36;;;;;;;12.10;8.43;;;;;;;;;;4935767;29;20031;-65
2021/06/08 05:11:16;;;;;;;12.75;7.78;;;;;;;;;;4934724;29;20035;-62
2021/06/08 05:13:46;;;;;;;13.35;8.70;;;;;;;;;;4936046;29;20028;-61
2021/06/08 05:16:12;;;;;;;9.65;7.28;;;;;;;;;;4935867;29;20026;-66
2021/06/08 05:18:40;;;;;;;13.10;7.70;;;;;;;;;;4935610;29;20043;-72
2021/06/08 05:21:08;;;;;;;16.85;9.88;;;;;;;;;;4935714;29;20036;-70
2021/06/08 05:23:35;;;;;;;12.85;8.27;;;;;;;;;;4939349;29;20028;-66
2021/06/08 05:26:02;;;;;;;11.27;7.75;;;;;;;;;;4937055;29;20024;-66
2021/06/08 05:28:28;;;;;;;8.63;7.15;;;;;;;;;;4946266;29;20062;-68
2021/06/08 05:30:54;;;;;;;12.57;7.20;;;;;;;;;;4935512;29;20506;-67
2021/06/08 05:33:21;;;;;;;15.00;7.15;;;;;;;;;;4935327;29;20039;-68
2021/06/08 05:35:48;;;;;;;10.35;7.28;;;;;;;;;;4935216;29;20123;-66
2021/06/08 05:38:15;;;;;;;8.48;6.90;;;;;;;;;;4935559;29;20031;-63
2021/06/08 05:40:43;;;;;;;13.07;7.35;;;;;;;;;;4934974;29;20090;-65
2021/06/08 05:43:10;;;;;;;9.85;7.05;;;;;;;;;;4934975;29;20040;-67
2021/06/08 05:45:36;;;;;;;11.80;6.68;;;;;;;;;;4912303;29;20039;-69
2021/06/08 05:48:03;;;;;;;11.85;7.55;;;;;;;;;;4936897;29;20463;-65
2021/06/08 05:50:29;;;;;;;13.02;7.32;;;;;;;;;;4934827;29;20036;-63
2021/06/08 05:52:56;;;;;;;13.70;7.90;;;;;;;;;;4934840;29;20024;-67
2021/06/08 05:55:24;;;;;;;9.23;7.25;;;;;;;;;;4935120;29;20034;-63
2021/06/08 05:57:51;;;;;;;14.02;7.82;;;;;;;;;;4934669;29;20044;-62
2021/06/08 06:00:18;;;;;;;12.13;7.15;;;;;;;;;;4934268;29;20027;-65
2021/06/08 06:02:44;;;;;;;13.63;7.53;;;;;;;;;;4935157;29;20027;-65
2021/06/08 06:05:11;;;;;;;12.13;7.38;;;;;;;;;;4935362;29;20074;-65
2021/06/08 06:07:38;;;;;;;10.93;7.20;;;;;;;;;;4934721;29;20364;-70
2021/06/08 06:10:04;;;;;;;10.60;7.47;;;;;;;;;;4934737;29;20032;-62
2021/06/08 06:12:31;;;;;;;14.25;7.40;;;;;;;;;;4934450;29;20459;-64
2021/06/08 06:15:03;;;;;;;11.60;7.20;;;;;;;;;;4934394;29;20079;-65
2021/06/08 06:17:32;;;;;;;14.65;7.57;;;;;;;;;;4934303;29;20102;-69
2021/06/08 06:19:58;;;;;;;12.05;7.60;;;;;;;;;;4934106;29;20079;-62
2021/06/08 06:22:24;;;;;;;12.70;7.40;;;;;;;;;;4934001;29;20086;-66
2021/06/08 06:24:50;;;;;;;14.23;7.05;;;;;;;;;;4934083;29;20034;-69
2021/06/08 06:27:18;;;;;;;9.13;6.55;;;;;;;;;;4934014;29;20038;-69
2021/06/08 06:29:45;;;;;;;13.35;7.35;;;;;;;;;;4934147;29;20066;-63
2021/06/08 06:32:11;;;;;;;9.48;7.00;;;;;;;;;;4933718;29;20035;-65
2021/06/08 06:34:37;;;;;;;14.75;7.38;;;;;;;;;;4933896;29;20028;-68
2021/06/08 06:37:06;;;;;;;12.23;7.07;;;;;;;;;;4934096;29;20032;-65
2021/06/08 06:39:33;;;;;;;12.82;6.43;;;;;;;;;;4935715;29;20035;-68
2021/06/08 06:42:02;;;;;;;16.70;7.25;;;;;;;;;;4933733;29;20058;-67
2021/06/08 06:44:28;;;;;;;12.20;6.53;;;;;;;;;;4934222;29;20034;-69
2021/06/08 06:46:54;;;;;;;12.68;7.32;;;;;;;;;;4933897;29;20059;-64
2021/06/08 06:49:21;;;;;;;15.73;7.78;;;;;;;;;;4934296;29;20031;-65
2021/06/08 06:51:47;;;;;;;14.10;7.78;;;;;;;;;;4933501;29;20031;-64
2021/06/08 06:54:14;;;;;;;12.00;7.05;;;;;;;;;;4933487;29;20047;-64
2021/06/08 06:56:40;;;;;;;11.65;6.97;;;;;;;;;;4934068;29;20028;-70
2021/06/08 06:59:07;;;;;;;9.30;6.45;;;;;;;;;;4934055;29;20046;-70
2021/06/08 07:01:33;;;;;;;16.45;7.15;;;;;;;;;;4933702;29;20131;-63
2021/06/08 07:04:00;;;;;;;9.88;6.80;;;;;;;;;;4934084;29;20092;-69
2021/06/08 07:06:27;;;;;;;15.43;6.63;;;;;;;;;;4933826;29;20503;-68
2021/06/08 07:08:54;;;;;;;11.93;6.35;;;;;;;;;;4933548;29;20036;-74
2021/06/08 07:11:21;;;;;;;11.75;6.65;;;;;;;;;;4933599;29;20115;-70
2021/06/08 07:13:47;;;;;;;11.80;6.45;;;;;;;;;;4934089;29;20046;-63
2021/06/08 07:16:16;;;;;;;13.70;7.00;;;;;;;;;;4943250;29;20024;-64
2021/06/08 07:18:45;;;;;;;14.82;7.50;;;;;;;;;;4933333;29;20091;-63
2021/06/08 07:21:11;;;;;;;10.52;6.70;;;;;;;;;;4933437;29;20484;-60
2021/06/08 07:23:37;;;;;;;15.43;7.50;;;;;;;;;;4933646;29;20130;-64
2021/06/08 07:26:04;;;;;;;9.93;7.20;;;;;;;;;;4933388;29;20028;-62
2021/06/08 07:28:31;;;;;;;14.93;7.13;;;;;;;;;;4932545;29;20024;-61
2021/06/08 07:30:59;;;;;;;13.27;7.35;;;;;;;;;;4933027;29;20042;-70
2021/06/08 07:33:25;;;;;;;13.52;7.95;;;;;;;;;;4934619;29;20032;-62
2021/06/08 07:35:53;;;;;;;16.65;8.15;;;;;;;;;;4937638;29;20075;-62
2021/06/08 07:38:25;;;;;;;15.95;8.55;;;;;;;;;;4937730;29;20428;-65
2021/06/08 07:41:02;;;;;;;14.05;9.05;;;;;;;;;;4937488;29;20043;-70
2021/06/08 07:43:34;;;;;;;14.75;7.97;;;;;;;;;;4937384;29;20036;-76
2021/06/08 07:46:03;;;;;;;14.40;8.10;;;;;;;;;;4937542;29;20517;-61
2021/06/08 07:48:30;;;;;;;13.25;7.35;;;;;;;;;;4937366;29;20036;-75
2021/06/08 07:50:57;;;;;;;10.55;6.32;;;;;;;;;;4936655;29;20110;-69
2021/06/08 07:53:25;;;;;;;8.90;5.68;;;;;;;;;;4937128;29;20035;-67
2021/06/08 07:55:51;;;;;;;14.18;8.18;;;;;;;;;;4935260;29;20108;-66
2021/06/08 07:58:23;;;;;;;13.35;7.13;;;;;;;;;;4935200;29;20047;-68
2021/06/08 08:00:52;;;;;;;14.93;7.28;;;;;;;;;;4935588;29;20449;-72
2021/06/08 08:03:29;;;;;;;8.30;5.00;;;;;;;;;;4936889;29;20031;-66
2021/06/08 08:06:00;;;;;;;7.72;5.00;;;;;;;;;;4938743;29;20448;-68
2021/06/08 08:08:26;;;;;;;7.97;5.25;;;;;;;;;;4922470;29;20023;-71
2021/06/08 08:10:53;;;;;;;8.23;5.35;;;;;;;;;;4921153;29;20038;-71
2021/06/08 08:13:23;;;;;;;8.52;5.45;;;;;;;;;;4936729;29;20028;-68
2021/06/08 08:15:50;;;;;;;12.50;5.68;;;;;;;;;;4935359;29;20031;-68
2021/06/08 08:18:17;;;;;;;8.23;4.80;;;;;;;;;;4930023;29;20040;-68
2021/06/08 08:20:53;;;;;;;7.60;4.88;;;;;;;;;;4932570;29;20099;-67
2021/06/08 08:23:20;;;;;;;6.97;4.20;;;;;;;;;;4935892;29;20075;-67
2021/06/08 08:25:46;;;;;;;8.00;4.35;;;;;;;;;;4936566;29;20035;-69
2021/06/08 08:28:13;;;;;;;14.80;4.80;;;;;;;;;;4936319;29;20031;-69
2021/06/08 08:30:39;;;;;;;9.95;5.03;;;;;;;;;;4936473;29;20020;-73
2021/06/08 08:33:06;;;;;;;8.70;5.20;;;;;;;;;;4936675;29;20043;-69
2021/06/08 08:35:33;;;;;;;6.03;4.53;;;;;;;;;;4936274;29;20031;-64
2021/06/08 08:38:00;;;;;;;10.05;3.85;;;;;;;;;;4935763;29;20037;-65
2021/06/08 08:40:27;;;;;;;6.05;3.33;;;;;;;;;;4935959;29;20095;-63
2021/06/08 08:42:53;;;;;;;6.18;3.60;;;;;;;;;;4936084;29;20503;-65
2021/06/08 08:45:19;;;;;;;7.13;4.07;;;;;;;;;;4936220;29;20039;-67
2021/06/08 08:47:45;;;;;;;9.93;4.20;;;;;;;;;;4935984;29;20027;-65
2021/06/08 08:50:15;;;;;;;8.65;3.95;;;;;;;;;;4936214;29;20036;-67
2021/06/08 08:52:43;;;;;;;7.40;3.47;;;;;;;;;;4935998;29;20028;-65
2021/06/08 08:55:10;;;;;;;5.18;3.58;;;;;;;;;;4936016;29;20035;-65
2021/06/08 08:57:36;;;;;;;5.38;2.80;;;;;;;;;;4937912;29;20035;-64
2021/06/08 09:00:05;;;;;;;6.10;2.92;;;;;;;;;;4944122;29;20127;-67
2021/06/08 09:02:32;;;;;;;4.75;2.35;;;;;;;;;;4935041;29;20567;-63
2021/06/08 09:04:59;;;;;;;4.88;2.58;;;;;;;;;;4936216;29;20024;-65
2021/06/08 09:07:26;;;;;;;4.00;2.78;;;;;;;;;;4935159;29;20028;-65
2021/06/08 09:09:52;;;;;;;3.70;2.50;;;;;;;;;;4936012;29;20023;-63
2021/06/08 09:12:18;;;;;;;6.47;2.65;;;;;;;;;;4935556;29;20042;-65
2021/06/08 09:14:44;;;;;;;3.88;2.80;;;;;;;;;;4936750;29;20102;-63
2021/06/08 09:17:15;;;;;;;5.03;2.83;;;;;;;;;;4935671;29;20035;-69
2021/06/08 09:19:41;;;;;;;4.22;2.80;;;;;;;;;;4935050;29;20396;-65
2021/06/08 09:22:09;;;;;;;4.53;2.50;;;;;;;;;;4935049;29;20431;-65
2021/06/08 09:24:36;;;;;;;5.22;2.70;;;;;;;;;;4935375;29;20464;-69
2021/06/08 09:27:03;;;;;;;6.25;2.83;;;;;;;;;;4934803;29;20036;-67
2021/06/08 09:29:34;;;;;;;6.63;2.97;;;;;;;;;;4945910;29;20109;-66
2021/06/08 09:32:12;;;;;;;4.18;2.53;;;;;;;;;;4927858;29;20031;-65
2021/06/08 09:34:38;;;;;;;4.53;2.50;;;;;;;;;;4934894;29;20512;-68
2021/06/08 09:37:05;;;;;;;7.70;2.55;;;;;;;;;;4917000;29;20067;-64
2021/06/08 09:39:31;;;;;;;6.28;2.67;;;;;;;;;;4934068;29;20517;-64
2021/06/08 09:41:58;;;;;;;5.53;2.53;;;;;;;;;;4933945;29;20082;-68
2021/06/08 09:44:24;;;;;;;4.55;2.40;;;;;;;;;;4934497;29;20075;-64
2021/06/08 09:46:50;;;;;;;5.00;2.22;;;;;;;;;;4934813;29;20036;-67
2021/06/08 09:49:20;;;;;;;3.33;2.60;;;;;;;;;;4934937;29;20020;-67
2021/06/08 09:51:57;;;;;;;4.05;2.53;;;;;;;;;;4917150;29;20385;-68
2021/06/08 09:54:38;;;;;;;5.78;2.45;;;;;;;;;;4939207;29;20032;-66
2021/06/08 09:57:19;;;;;;;4.00;2.53;;;;;;;;;;4940514;29;20039;-66
2021/06/08 09:59:49;;;;;;;3.20;2.25;;;;;;;;;;4936659;29;20467;-66
2021/06/08 10:02:38;;;;;;;5.47;2.35;;;;;;;;;;4934831;29;20083;-66
2021/06/08 10:05:22;;;;;;;4.43;2.53;;;;;;;;;;4933283;29;20035;-66
2021/06/08 10:08:01;;;;;;;3.85;2.10;;;;;;;;;;4935465;29;20106;-64
2021/06/08 10:10:34;;;;;;;5.13;2.50;;;;;;;;;;4934462;29;20107;-67
2021/06/08 10:13:05;;;;;;;6.55;2.97;;;;;;;;;;4934559;29;20043;-66
2021/06/08 10:15:35;;;;;;;5.95;2.28;;;;;;;;;;4934944;29;20048;-65
2021/06/08 10:18:01;;;;;;;3.10;2.40;;;;;;;;;;4931772;29;20042;-68
2021/06/08 10:20:29;;;;;;;5.68;3.08;;;;;;;;;;4932969;29;20078;-67
2021/06/08 10:22:56;;;;;;;6.68;2.33;;;;;;;;;;4934223;29;20024;-68
2021/06/08 10:25:22;;;;;;;3.70;2.10;;;;;;;;;;4934674;29;20024;-66
2021/06/08 10:27:48;;;;;;;3.42;2.03;;;;;;;;;;4934457;29;20020;-66
2021/06/08 10:30:15;;;;;;;6.28;2.30;;;;;;;;;;4934308;29;20047;-66
2021/06/08 10:32:41;;;;;;;3.67;2.53;;;;;;;;;;4933797;29;20023;-67
2021/06/08 10:35:08;;;;;;;7.07;2.30;;;;;;;;;;4933544;29;20031;-67
2021/06/08 10:37:35;;;;;;;11.32;2.28;;;;;;;;;;4932706;29;20036;-68
2021/06/08 10:40:01;;;;;;;4.32;2.25;;;;;;;;;;4933448;29;20035;-66
2021/06/08 10:42:28;;;;;;;5.18;2.22;;;;;;;;;;4933899;29;20055;-62
2021/06/08 10:45:01;;;;;;;6.13;2.10;;;;;;;;;;4932731;29;20027;-69
2021/06/08 10:47:35;;;;;;;6.78;2.13;;;;;;;;;;4933446;29;20032;-65
2021/06/08 10:50:01;;;;;;;4.13;2.08;;;;;;;;;;4934195;29;20021;-64
2021/06/08 10:52:28;;;;;;;6.10;2.17;;;;;;;;;;4934569;29;20110;-74
2021/06/08 10:54:54;;;;;;;4.07;2.28;;;;;;;;;;4934703;29;20026;-68
2021/06/08 10:57:21;;;;;;;3.50;2.03;;;;;;;;;;4934600;29;20110;-63
2021/06/08 10:59:48;;;;;;;4.35;1.88;;;;;;;;;;4934940;29;20028;-68
2021/06/08 11:02:34;;;;;;;5.05;2.08;;;;;;;;;;4932877;29;20024;-68
2021/06/08 11:05:00;;;;;;;2.70;2.08;;;;;;;;;;4931255;29;20039;-66
2021/06/08 11:07:46;;;;;;;3.67;1.88;;;;;;;;;;4931563;29;20027;-66
2021/06/08 11:10:30;;;;;;;7.03;2.17;;;;;;;;;;4933044;29;20043;-67
2021/06/08 11:13:08;;;;;;;4.95;2.30;;;;;;;;;;4932476;29;20039;-65
2021/06/08 11:15:35;;;;;;;2.70;1.75;;;;;;;;;;4932998;29;20098;-67
2021/06/08 11:18:22;;;;;;;4.82;2.30;;;;;;;;;;4934309;29;20123;-66
2021/06/08 11:21:06;;;;;;;4.30;1.80;;;;;;;;;;4934653;29;20035;-65
2021/06/08 11:23:44;;;;;;;5.10;2.20;;;;;;;;;;4941115;29;20458;-65
2021/06/08 11:26:14;;;;;;;4.72;2.08;;;;;;;;;;4920852;29;20438;-65
2021/06/08 11:28:44;;;;;;;5.88;1.88;;;;;;;;;;4918329;29;20036;-66
2021/06/08 11:31:11;;;;;;;5.03;2.05;;;;;;;;;;4933676;29;20476;-65
2021/06/08 11:33:37;;;;;;;2.65;2.00;;;;;;;;;;4933377;29;20028;-65
2021/06/08 11:36:23;;;;;;;5.00;2.10;;;;;;;;;;4933470;29;20032;-60
2021/06/08 11:38:50;;;;;;;3.13;1.80;;;;;;;;;;4837624;29;20053;-65
2021/06/08 11:41:17;;;;;;;4.90;2.30;;;;;;;;;;4837433;29;20522;-65
2021/06/08 11:43:44;;;;;;;3.40;1.92;;;;;;;;;;4837623;29;20045;-67
2021/06/08 11:46:13;;;;;;;5.60;2.45;;;;;;;;;;4837630;29;20038;-64
2021/06/08 11:48:40;;;;;;;3.10;2.30;;;;;;;;;;4837544;29;20034;-63
2021/06/08 11:51:18;;;;;;;5.10;2.30;;;;;;;;;;4837504;29;20105;-65
2021/06/08 11:53:57;;;;;;;6.30;3.85;;;;;;;;;;4837185;29;20098;-68
2021/06/08 11:56:40;;;;;;;6.15;2.50;;;;;;;;;;4837465;29;20129;-65
2021/06/08 11:59:07;;;;;;;3.65;2.00;;;;;;;;;;4837586;29;20113;-64
2021/06/08 12:01:37;;;;;;;4.07;2.47;;;;;;;;;;4837532;29;20382;-67
2021/06/08 12:04:04;;;;;;;3.45;2.13;;;;;;;;;;4837336;29;20041;-67
2021/06/08 12:06:48;;;;;;;3.88;2.08;;;;;;;;;;4837881;29;20037;-68
2021/06/08 12:09:17;;;;;;;4.20;2.47;;;;;;;;;;4837662;29;20069;-65
2021/06/08 12:11:43;;;;;;;2.60;1.98;;;;;;;;;;4836981;29;20038;-64
2021/06/08 12:14:09;;;;;;;5.25;2.60;;;;;;;;;;4837211;29;20064;-64
2021/06/08 12:16:36;;;;;;;3.67;2.50;;;;;;;;;;4912417;29;20050;-65
2021/06/08 12:19:08;;;;;;;4.47;2.30;;;;;;;;;;4933452;29;20040;-67
2021/06/08 12:21:34;;;;;;;3.00;2.17;;;;;;;;;;4939990;29;20031;-68
2021/06/08 12:24:00;;;;;;;5.40;2.25;;;;;;;;;;4954887;29;20122;-67
2021/06/08 12:26:28;;;;;;;4.97;2.50;;;;;;;;;;4955842;29;20062;-67
2021/06/08 12:29:13;;;;;;;4.68;2.33;;;;;;;;;;4955496;29;20023;-65
2021/06/08 12:31:39;;;;;;;3.30;2.05;;;;;;;;;;4955383;29;20082;-66
2021/06/08 12:34:16;;;;;;;3.50;1.90;;;;;;;;;;4955610;29;20027;-69
2021/06/08 12:36:43;;;;;;;5.93;2.20;;;;;;;;;;4955277;29;20027;-66
2021/06/08 12:39:16;;;;;;;3.60;2.08;;;;;;;;;;4955348;29;20118;-66
2021/06/08 12:41:43;;;;;;;8.45;2.50;;;;;;;;;;4954990;29;20167;-65
2021/06/08 12:44:09;;;;;;;4.00;1.95;;;;;;;;;;4955557;29;20028;-67
2021/06/08 12:46:36;;;;;;;4.20;1.92;;;;;;;;;;4955370;29;20035;-64
2021/06/08 12:49:04;;;;;;;4.40;2.33;;;;;;;;;;4955402;29;20527;-66
2021/06/08 12:51:31;;;;;;;5.78;2.25;;;;;;;;;;4955172;29;20035;-67
2021/06/08 12:53:57;;;;;;;5.28;2.28;;;;;;;;;;4954929;29;20383;-66
2021/06/08 12:56:24;;;;;;;5.55;2.35;;;;;;;;;;4955212;29;20467;-66
2021/06/08 12:58:50;;;;;;;4.55;2.05;;;;;;;;;;4954866;29;20047;-67
2021/06/08 13:01:16;;;;;;;4.47;2.03;;;;;;;;;;4954867;29;20055;-66
2021/06/08 13:03:45;;;;;;;3.65;2.20;;;;;;;;;;4954709;29;20027;-66
2021/06/08 13:06:11;;;;;;;3.10;1.83;;;;;;;;;;4954848;29;20023;-64
2021/06/08 13:08:40;;;;;;;5.43;2.28;;;;;;;;;;4954700;29;20562;-67
2021/06/08 13:11:16;;;;;;;5.55;2.13;;;;;;;;;;4954232;29;20181;-67
2021/06/08 13:13:42;;;;;;;2.65;1.90;;;;;;;;;;4954512;29;20031;-68
2021/06/08 13:16:08;;;;;;;3.33;2.10;;;;;;;;;;4954819;29;20352;-66
2021/06/08 13:18:43;;;;;;;4.75;2.45;;;;;;;;;;4954538;29;20046;-67
2021/06/08 13:21:09;;;;;;;5.85;2.17;;;;;;;;;;4950219;29;20729;-69
2021/06/08 13:23:36;;;;;;;4.78;2.47;;;;;;;;;;4946173;29;20036;-70
2021/06/08 13:26:08;;;;;;;4.13;2.40;;;;;;;;;;4953633;29;20674;-66
2021/06/08 13:28:35;;;;;;;5.55;2.20;;;;;;;;;;4953197;29;20140;-69
2021/06/08 13:31:04;;;;;;;7.30;2.50;;;;;;;;;;4951833;28;20034;-68
2021/06/08 13:33:32;;;;;;;6.07;2.53;;;;;;;;;;4953614;29;20031;-69
2021/06/08 13:35:58;;;;;;;4.28;2.40;;;;;;;;;;4953834;29;20031;-66
2021/06/08 13:38:24;;;;;;;4.28;2.30;;;;;;;;;;4953414;29;20122;-68
2021/06/08 13:40:51;;;;;;;4.75;2.28;;;;;;;;;;4953469;29;20039;-67
2021/06/08 13:43:17;;;;;;;5.35;2.17;;;;;;;;;;4935308;29;20050;-68
2021/06/08 13:45:47;;;;;;;5.65;2.40;;;;;;;;;;4954057;29;20035;-66
2021/06/08 13:48:19;;;;;;;6.35;2.40;;;;;;;;;;4954238;29;20028;-66
2021/06/08 13:50:46;;;;;;;5.75;2.47;;;;;;;;;;4953544;29;20093;-66
2021/06/08 13:53:19;;;;;;;3.63;2.20;;;;;;;;;;4950389;29;20154;-68
2021/06/08 13:56:04;;;;;;;2.97;2.17;;;;;;;;;;4953016;29;20027;-66
2021/06/08 14:01:29;;;;;;;4.13;2.67;;;;;;;;;;4953130;29;20359;-68
2021/06/08 14:04:06;;;;;;;4.90;2.60;;;;;;;;;;4953262;29;20464;-69
2021/06/08 14:06:33;;;;;;;4.38;2.30;;;;;;;;;;4953480;29;20031;-68
2021/06/08 14:09:06;;;;;;;4.95;2.40;;;;;;;;;;4952555;29;20023;-68
2021/06/08 14:11:35;;;;;;;7.20;2.63;;;;;;;;;;4953156;29;20087;-69
2021/06/08 14:14:02;;;;;;;5.65;2.40;;;;;;;;;;4951374;29;20079;-67
2021/06/08 14:16:29;;;;;;;4.38;2.50;;;;;;;;;;4936259;29;20027;-69
2021/06/08 14:18:55;;;;;;;4.90;2.70;;;;;;;;;;4953635;29;20484;-69
2021/06/08 14:21:22;;;;;;;7.53;2.53;;;;;;;;;;4953841;29;20031;-68
2021/06/08 14:23:53;;;;;;;5.97;2.40;;;;;;;;;;4952911;29;20035;-68
2021/06/08 14:26:19;;;;;;;3.35;2.58;;;;;;;;;;4953382;29;20039;-67
2021/06/08 14:28:46;;;;;;;5.90;2.60;;;;;;;;;;4953493;29;20036;-70
2021/06/08 14:31:12;;;;;;;6.05;2.58;;;;;;;;;;4953029;29;20054;-69
2021/06/08 14:33:38;;;;;;;5.05;2.58;;;;;;;;;;4953678;29;20137;-71
2021/06/08 14:36:04;;;;;;;4.10;2.42;;;;;;;;;;4953590;29;20023;-70
2021/06/08 14:38:33;;;;;;;6.82;2.45;;;;;;;;;;4953142;29;20098;-70
2021/06/08 14:40:59;;;;;;;5.90;2.70;;;;;;;;;;4953335;29;20122;-66
2021/06/08 14:43:25;;;;;;;6.28;2.60;;;;;;;;;;4953135;28;20039;-66
2021/06/08 14:45:51;;;;;;;6.30;2.63;;;;;;;;;;4951109;29;20728;-68